sensor_id;sensor_type;location;lat;lon;timestamp;temperature;humidity
52889;DHT22;41413;52.770;6.892;2023-07-22T00:00:39;14.40;99.90
52889;DHT22;41413;52.770;6.892;2023-07-22T00:03:06;14.50;99.90
52889;DHT22;41413;52.770;6.892;2023-07-22T00:05:33;14.50;99.90
52889;DHT22;41413;52.770;6.892;2023-07-22T00:08:00;14.50;99.90
52889;DHT22;41413;52.770;6.892;2023-07-22T00:10:27;14.40;99.90
52889;DHT22;41413;52.770;6.892;2023-07-22T00:12:53;14.40;99.90
52889;DHT22;41413;52.770;6.892;2023-07-22T00:15:20;14.40;99.90
52889;DHT22;41413;52.770;6.892;2023-07-22T00:17:49;14.40;99.90
52889;DHT22;41413;52.770;6.892;2023-07-22T00:20:16;14.30;99.90
52889;DHT22;41413;52.770;6.892;2023-07-22T00:22:43;14.30;99.90
52889;DHT22;41413;52.770;6.892;2023-07-22T00:25:11;14.20;99.90
52889;DHT22;41413;52.770;6.892;2023-07-22T00:27:39;14.20;99.90
52889;DHT22;41413;52.770;6.892;2023-07-22T00:30:07;14.10;99.90
52889;DHT22;41413;52.770;6.892;2023-07-22T00:32:34;14.00;99.90
52889;DHT22;41413;52.770;6.892;2023-07-22T00:35:06;14.00;99.90
52889;DHT22;41413;52.770;6.892;2023-07-22T00:37:33;14.10;99.90
52889;DHT22;41413;52.770;6.892;2023-07-22T00:40:01;14.10;99.90
52889;DHT22;41413;52.770;6.892;2023-07-22T00:42:32;14.00;99.90
52889;DHT22;41413;52.770;6.892;2023-07-22T00:44:59;13.90;99.90
52889;DHT22;41413;52.770;6.892;2023-07-22T00:47:25;13.90;99.90
52889;DHT22;41413;52.770;6.892;2023-07-22T00:49:52;13.90;99.90
52889;DHT22;41413;52.770;6.892;2023-07-22T00:52:20;13.90;99.90
52889;DHT22;41413;52.770;6.892;2023-07-22T00:54:46;13.90;99.90
52889;DHT22;41413;52.770;6.892;2023-07-22T00:57:14;13.90;99.90
52889;DHT22;41413;52.770;6.892;2023-07-22T00:59:41;13.90;99.90
52889;DHT22;41413;52.770;6.892;2023-07-22T01:02:08;13.80;99.90
52889;DHT22;41413;52.770;6.892;2023-07-22T01:04:36;13.80;99.90
52889;DHT22;41413;52.770;6.892;2023-07-22T01:07:04;13.80;99.90
52889;DHT22;41413;52.770;6.892;2023-07-22T01:09:39;13.70;99.90
52889;DHT22;41413;52.770;6.892;2023-07-22T01:12:07;13.70;99.90
52889;DHT22;41413;52.770;6.892;2023-07-22T01:14:36;13.70;99.90
52889;DHT22;41413;52.770;6.892;2023-07-22T01:17:07;13.60;99.90
52889;DHT22;41413;52.770;6.892;2023-07-22T01:19:34;13.50;99.90
52889;DHT22;41413;52.770;6.892;2023-07-22T01:22:03;13.50;99.90
52889;DHT22;41413;52.770;6.892;2023-07-22T01:24:31;13.50;99.90
52889;DHT22;41413;52.770;6.892;2023-07-22T01:26:58;13.50;99.90
52889;DHT22;41413;52.770;6.892;2023-07-22T01:29:25;13.50;99.90
52889;DHT22;41413;52.770;6.892;2023-07-22T01:31:54;13.50;99.90
52889;DHT22;41413;52.770;6.892;2023-07-22T01:34:21;13.50;99.90
52889;DHT22;41413;52.770;6.892;2023-07-22T01:36:49;13.50;99.90
52889;DHT22;41413;52.770;6.892;2023-07-22T01:39:17;13.50;99.90
52889;DHT22;41413;52.770;6.892;2023-07-22T01:41:45;13.50;99.90
52889;DHT22;41413;52.770;6.892;2023-07-22T01:44:12;13.50;99.90
52889;DHT22;41413;52.770;6.892;2023-07-22T01:46:38;13.50;99.90
52889;DHT22;41413;52.770;6.892;2023-07-22T01:49:09;13.40;99.90
52889;DHT22;41413;52.770;6.892;2023-07-22T01:51:36;13.40;99.90
52889;DHT22;41413;52.770;6.892;2023-07-22T01:54:04;13.40;99.90
52889;DHT22;41413;52.770;6.892;2023-07-22T01:56:31;13.40;99.90
52889;DHT22;41413;52.770;6.892;2023-07-22T01:58:58;13.30;99.90
52889;DHT22;41413;52.770;6.892;2023-07-22T02:01:25;13.40;99.90
52889;DHT22;41413;52.770;6.892;2023-07-22T02:03:52;13.40;99.90
52889;DHT22;41413;52.770;6.892;2023-07-22T02:06:19;13.30;99.90
52889;DHT22;41413;52.770;6.892;2023-07-22T02:08:46;13.30;99.90
52889;DHT22;41413;52.770;6.892;2023-07-22T02:11:13;13.30;99.90
52889;DHT22;41413;52.770;6.892;2023-07-22T02:13:39;13.30;99.90
52889;DHT22;41413;52.770;6.892;2023-07-22T02:16:06;13.30;99.90
52889;DHT22;41413;52.770;6.892;2023-07-22T02:18:33;13.30;99.90
52889;DHT22;41413;52.770;6.892;2023-07-22T02:21:00;13.30;99.90
52889;DHT22;41413;52.770;6.892;2023-07-22T02:23:26;13.30;99.90
52889;DHT22;41413;52.770;6.892;2023-07-22T02:25:54;13.20;99.90
52889;DHT22;41413;52.770;6.892;2023-07-22T02:28:21;13.20;99.90
52889;DHT22;41413;52.770;6.892;2023-07-22T02:30:50;13.20;99.90
52889;DHT22;41413;52.770;6.892;2023-07-22T02:33:21;13.20;99.90
52889;DHT22;41413;52.770;6.892;2023-07-22T02:35:48;13.10;99.90
52889;DHT22;41413;52.770;6.892;2023-07-22T02:38:15;13.20;99.90
52889;DHT22;41413;52.770;6.892;2023-07-22T02:40:42;13.20;99.90
52889;DHT22;41413;52.770;6.892;2023-07-22T02:43:09;13.10;99.90
52889;DHT22;41413;52.770;6.892;2023-07-22T02:45:36;13.20;99.90
52889;DHT22;41413;52.770;6.892;2023-07-22T02:48:04;13.20;99.90
52889;DHT22;41413;52.770;6.892;2023-07-22T02:50:31;13.20;99.90
52889;DHT22;41413;52.770;6.892;2023-07-22T02:52:58;13.10;99.90
52889;DHT22;41413;52.770;6.892;2023-07-22T02:55:24;13.10;99.90
52889;DHT22;41413;52.770;6.892;2023-07-22T02:57:51;13.10;99.90
52889;DHT22;41413;52.770;6.892;2023-07-22T03:00:19;13.20;99.90
52889;DHT22;41413;52.770;6.892;2023-07-22T03:02:55;13.10;99.90
52889;DHT22;41413;52.770;6.892;2023-07-22T03:05:28;13.20;99.90
52889;DHT22;41413;52.770;6.892;2023-07-22T03:07:55;13.10;99.90
52889;DHT22;41413;52.770;6.892;2023-07-22T03:10:23;13.20;99.90
52889;DHT22;41413;52.770;6.892;2023-07-22T03:12:52;13.20;99.90
52889;DHT22;41413;52.770;6.892;2023-07-22T03:15:23;13.20;99.90
52889;DHT22;41413;52.770;6.892;2023-07-22T03:17:49;13.20;99.90
52889;DHT22;41413;52.770;6.892;2023-07-22T03:20:16;13.20;99.90
52889;DHT22;41413;52.770;6.892;2023-07-22T03:22:46;13.10;99.90
52889;DHT22;41413;52.770;6.892;2023-07-22T03:25:14;13.10;99.90
52889;DHT22;41413;52.770;6.892;2023-07-22T03:27:44;13.10;99.90
52889;DHT22;41413;52.770;6.892;2023-07-22T03:30:16;13.10;99.90
52889;DHT22;41413;52.770;6.892;2023-07-22T03:32:45;13.20;99.90
52889;DHT22;41413;52.770;6.892;2023-07-22T03:35:14;13.10;99.90
52889;DHT22;41413;52.770;6.892;2023-07-22T03:37:41;13.20;99.90
52889;DHT22;41413;52.770;6.892;2023-07-22T03:40:08;13.20;99.90
52889;DHT22;41413;52.770;6.892;2023-07-22T03:42:41;13.10;99.90
52889;DHT22;41413;52.770;6.892;2023-07-22T03:45:08;13.20;99.90
52889;DHT22;41413;52.770;6.892;2023-07-22T03:47:37;13.20;99.90
52889;DHT22;41413;52.770;6.892;2023-07-22T03:50:05;13.20;99.90
52889;DHT22;41413;52.770;6.892;2023-07-22T03:52:32;13.30;99.90
52889;DHT22;41413;52.770;6.892;2023-07-22T03:54:59;13.30;99.90
52889;DHT22;41413;52.770;6.892;2023-07-22T03:57:26;13.30;99.90
52889;DHT22;41413;52.770;6.892;2023-07-22T03:59:54;13.40;99.90
52889;DHT22;41413;52.770;6.892;2023-07-22T04:02:21;13.30;99.90
52889;DHT22;41413;52.770;6.892;2023-07-22T04:04:49;13.40;99.90
52889;DHT22;41413;52.770;6.892;2023-07-22T04:07:16;13.30;99.90
52889;DHT22;41413;52.770;6.892;2023-07-22T04:09:43;13.40;99.90
52889;DHT22;41413;52.770;6.892;2023-07-22T04:12:11;13.30;99.90
52889;DHT22;41413;52.770;6.892;2023-07-22T04:14:38;13.40;99.90
52889;DHT22;41413;52.770;6.892;2023-07-22T04:17:05;13.40;99.90
52889;DHT22;41413;52.770;6.892;2023-07-22T04:19:32;13.40;99.90
52889;DHT22;41413;52.770;6.892;2023-07-22T04:21:59;13.50;99.90
52889;DHT22;41413;52.770;6.892;2023-07-22T04:24:31;13.50;99.90
52889;DHT22;41413;52.770;6.892;2023-07-22T04:26:59;13.50;99.90
52889;DHT22;41413;52.770;6.892;2023-07-22T04:29:26;13.50;99.90
52889;DHT22;41413;52.770;6.892;2023-07-22T04:31:57;13.60;99.90
52889;DHT22;41413;52.770;6.892;2023-07-22T04:34:28;13.70;99.90
52889;DHT22;41413;52.770;6.892;2023-07-22T04:36:55;13.60;99.90
52889;DHT22;41413;52.770;6.892;2023-07-22T04:39:22;13.70;99.90
52889;DHT22;41413;52.770;6.892;2023-07-22T04:41:50;13.80;99.90
52889;DHT22;41413;52.770;6.892;2023-07-22T04:44:18;13.80;99.90
52889;DHT22;41413;52.770;6.892;2023-07-22T04:46:45;13.80;99.90
52889;DHT22;41413;52.770;6.892;2023-07-22T04:49:13;13.80;99.90
52889;DHT22;41413;52.770;6.892;2023-07-22T04:51:40;13.80;99.90
52889;DHT22;41413;52.770;6.892;2023-07-22T04:54:07;13.80;99.90
52889;DHT22;41413;52.770;6.892;2023-07-22T04:56:34;13.90;99.90
52889;DHT22;41413;52.770;6.892;2023-07-22T04:59:00;14.00;99.90
52889;DHT22;41413;52.770;6.892;2023-07-22T05:01:28;13.90;99.90
52889;DHT22;41413;52.770;6.892;2023-07-22T05:03:54;14.00;99.90
52889;DHT22;41413;52.770;6.892;2023-07-22T05:06:22;14.00;99.90
52889;DHT22;41413;52.770;6.892;2023-07-22T05:08:51;14.00;99.90
52889;DHT22;41413;52.770;6.892;2023-07-22T05:11:17;14.00;99.90
52889;DHT22;41413;52.770;6.892;2023-07-22T05:13:45;14.10;99.90
52889;DHT22;41413;52.770;6.892;2023-07-22T05:16:11;14.10;99.90
52889;DHT22;41413;52.770;6.892;2023-07-22T05:18:38;14.20;99.90
52889;DHT22;41413;52.770;6.892;2023-07-22T05:21:05;14.20;99.90
52889;DHT22;41413;52.770;6.892;2023-07-22T05:23:33;14.20;99.90
52889;DHT22;41413;52.770;6.892;2023-07-22T05:26:00;14.20;99.90
52889;DHT22;41413;52.770;6.892;2023-07-22T05:28:27;14.30;99.90
52889;DHT22;41413;52.770;6.892;2023-07-22T05:30:55;14.30;99.90
52889;DHT22;41413;52.770;6.892;2023-07-22T05:33:22;14.40;99.90
52889;DHT22;41413;52.770;6.892;2023-07-22T05:35:49;14.40;99.90
52889;DHT22;41413;52.770;6.892;2023-07-22T05:38:16;14.30;99.90
52889;DHT22;41413;52.770;6.892;2023-07-22T05:40:43;14.30;99.90
52889;DHT22;41413;52.770;6.892;2023-07-22T05:43:09;14.20;99.90
52889;DHT22;41413;52.770;6.892;2023-07-22T05:45:37;14.30;99.90
52889;DHT22;41413;52.770;6.892;2023-07-22T05:48:04;14.20;99.90
52889;DHT22;41413;52.770;6.892;2023-07-22T05:50:31;14.20;99.90
52889;DHT22;41413;52.770;6.892;2023-07-22T05:52:58;14.10;99.90
52889;DHT22;41413;52.770;6.892;2023-07-22T05:55:25;14.20;99.90
52889;DHT22;41413;52.770;6.892;2023-07-22T05:57:53;14.20;99.90
52889;DHT22;41413;52.770;6.892;2023-07-22T06:00:20;14.30;99.90
52889;DHT22;41413;52.770;6.892;2023-07-22T06:02:47;14.20;99.90
52889;DHT22;41413;52.770;6.892;2023-07-22T06:05:15;14.20;99.90
52889;DHT22;41413;52.770;6.892;2023-07-22T06:07:42;14.20;99.90
52889;DHT22;41413;52.770;6.892;2023-07-22T06:10:09;14.30;99.90
52889;DHT22;41413;52.770;6.892;2023-07-22T06:12:37;14.30;99.90
52889;DHT22;41413;52.770;6.892;2023-07-22T06:15:06;14.30;99.90
52889;DHT22;41413;52.770;6.892;2023-07-22T06:17:33;14.30;99.90
52889;DHT22;41413;52.770;6.892;2023-07-22T06:20:00;14.20;99.90
52889;DHT22;41413;52.770;6.892;2023-07-22T06:22:27;14.20;99.90
52889;DHT22;41413;52.770;6.892;2023-07-22T06:24:54;14.20;99.90
52889;DHT22;41413;52.770;6.892;2023-07-22T06:27:21;14.30;99.90
52889;DHT22;41413;52.770;6.892;2023-07-22T06:29:48;14.30;99.90
52889;DHT22;41413;52.770;6.892;2023-07-22T06:32:15;14.40;99.90
52889;DHT22;41413;52.770;6.892;2023-07-22T06:34:42;14.50;99.90
52889;DHT22;41413;52.770;6.892;2023-07-22T06:37:08;14.50;99.90
52889;DHT22;41413;52.770;6.892;2023-07-22T06:39:35;14.60;99.90
52889;DHT22;41413;52.770;6.892;2023-07-22T06:42:02;14.70;99.90
52889;DHT22;41413;52.770;6.892;2023-07-22T06:44:29;14.70;99.90
52889;DHT22;41413;52.770;6.892;2023-07-22T06:46:57;14.70;99.90
52889;DHT22;41413;52.770;6.892;2023-07-22T06:49:24;14.60;99.90
52889;DHT22;41413;52.770;6.892;2023-07-22T06:51:51;14.70;99.90
52889;DHT22;41413;52.770;6.892;2023-07-22T06:54:18;14.70;99.90
52889;DHT22;41413;52.770;6.892;2023-07-22T06:56:45;14.80;99.90
52889;DHT22;41413;52.770;6.892;2023-07-22T06:59:11;14.80;99.90
52889;DHT22;41413;52.770;6.892;2023-07-22T07:01:38;14.80;99.90
52889;DHT22;41413;52.770;6.892;2023-07-22T07:04:05;14.80;99.90
52889;DHT22;41413;52.770;6.892;2023-07-22T07:06:32;14.90;99.90
52889;DHT22;41413;52.770;6.892;2023-07-22T07:09:00;14.80;99.90
52889;DHT22;41413;52.770;6.892;2023-07-22T07:11:28;15.00;99.90
52889;DHT22;41413;52.770;6.892;2023-07-22T07:13:56;15.10;99.90
52889;DHT22;41413;52.770;6.892;2023-07-22T07:16:30;15.10;99.90
52889;DHT22;41413;52.770;6.892;2023-07-22T07:18:59;15.20;99.90
52889;DHT22;41413;52.770;6.892;2023-07-22T07:21:27;15.30;99.90
52889;DHT22;41413;52.770;6.892;2023-07-22T07:23:54;15.30;99.90
52889;DHT22;41413;52.770;6.892;2023-07-22T07:26:22;15.20;99.90
52889;DHT22;41413;52.770;6.892;2023-07-22T07:28:49;15.30;99.90
52889;DHT22;41413;52.770;6.892;2023-07-22T07:31:17;15.60;99.90
52889;DHT22;41413;52.770;6.892;2023-07-22T07:33:44;15.60;99.90
52889;DHT22;41413;52.770;6.892;2023-07-22T07:36:11;15.70;99.90
52889;DHT22;41413;52.770;6.892;2023-07-22T07:38:38;15.90;99.90
52889;DHT22;41413;52.770;6.892;2023-07-22T07:41:06;16.10;99.90
52889;DHT22;41413;52.770;6.892;2023-07-22T07:43:39;16.20;99.90
52889;DHT22;41413;52.770;6.892;2023-07-22T07:46:32;16.20;99.90
52889;DHT22;41413;52.770;6.892;2023-07-22T07:49:00;16.30;99.90
52889;DHT22;41413;52.770;6.892;2023-07-22T07:51:31;16.40;99.90
52889;DHT22;41413;52.770;6.892;2023-07-22T07:53:59;16.40;99.90
52889;DHT22;41413;52.770;6.892;2023-07-22T07:56:26;16.30;99.90
52889;DHT22;41413;52.770;6.892;2023-07-22T07:58:54;16.40;99.90
52889;DHT22;41413;52.770;6.892;2023-07-22T08:01:21;16.50;99.90
52889;DHT22;41413;52.770;6.892;2023-07-22T08:03:48;16.60;99.90
52889;DHT22;41413;52.770;6.892;2023-07-22T08:06:15;16.80;99.90
52889;DHT22;41413;52.770;6.892;2023-07-22T08:08:45;17.00;99.90
52889;DHT22;41413;52.770;6.892;2023-07-22T08:11:14;17.10;99.90
52889;DHT22;41413;52.770;6.892;2023-07-22T08:13:42;17.30;99.90
52889;DHT22;41413;52.770;6.892;2023-07-22T08:16:12;17.40;99.90
52889;DHT22;41413;52.770;6.892;2023-07-22T08:18:39;17.60;99.90
52889;DHT22;41413;52.770;6.892;2023-07-22T08:21:07;17.70;99.90
52889;DHT22;41413;52.770;6.892;2023-07-22T08:23:35;17.80;99.90
52889;DHT22;41413;52.770;6.892;2023-07-22T08:26:03;17.80;99.90
52889;DHT22;41413;52.770;6.892;2023-07-22T08:28:34;17.70;99.90
52889;DHT22;41413;52.770;6.892;2023-07-22T08:31:01;17.70;99.90
52889;DHT22;41413;52.770;6.892;2023-07-22T08:33:28;17.90;99.90
52889;DHT22;41413;52.770;6.892;2023-07-22T08:36:08;17.90;99.90
52889;DHT22;41413;52.770;6.892;2023-07-22T08:38:35;18.10;99.90
52889;DHT22;41413;52.770;6.892;2023-07-22T08:41:02;18.30;99.90
52889;DHT22;41413;52.770;6.892;2023-07-22T08:43:29;18.40;99.90
52889;DHT22;41413;52.770;6.892;2023-07-22T08:46:00;18.60;99.90
52889;DHT22;41413;52.770;6.892;2023-07-22T08:48:30;18.80;99.90
52889;DHT22;41413;52.770;6.892;2023-07-22T08:51:07;19.10;99.90
52889;DHT22;41413;52.770;6.892;2023-07-22T08:53:35;19.70;99.90
52889;DHT22;41413;52.770;6.892;2023-07-22T08:56:04;20.60;99.90
52889;DHT22;41413;52.770;6.892;2023-07-22T08:58:31;20.90;99.90
52889;DHT22;41413;52.770;6.892;2023-07-22T09:00:59;21.30;99.90
52889;DHT22;41413;52.770;6.892;2023-07-22T09:03:26;21.10;99.90
52889;DHT22;41413;52.770;6.892;2023-07-22T09:05:54;20.70;99.90
52889;DHT22;41413;52.770;6.892;2023-07-22T09:08:21;20.20;99.90
52889;DHT22;41413;52.770;6.892;2023-07-22T09:10:48;20.30;99.90
52889;DHT22;41413;52.770;6.892;2023-07-22T09:13:15;20.50;99.90
52889;DHT22;41413;52.770;6.892;2023-07-22T09:15:42;20.50;99.90
52889;DHT22;41413;52.770;6.892;2023-07-22T09:18:09;20.50;99.90
52889;DHT22;41413;52.770;6.892;2023-07-22T09:20:36;20.50;99.90
52889;DHT22;41413;52.770;6.892;2023-07-22T09:23:03;20.30;99.90
52889;DHT22;41413;52.770;6.892;2023-07-22T09:25:40;20.00;99.90
52889;DHT22;41413;52.770;6.892;2023-07-22T09:28:07;19.50;99.90
52889;DHT22;41413;52.770;6.892;2023-07-22T09:30:36;19.20;99.90
52889;DHT22;41413;52.770;6.892;2023-07-22T09:33:07;19.00;99.90
52889;DHT22;41413;52.770;6.892;2023-07-22T09:35:45;18.90;99.90
52889;DHT22;41413;52.770;6.892;2023-07-22T09:38:12;18.60;99.90
52889;DHT22;41413;52.770;6.892;2023-07-22T09:40:42;18.40;99.90
52889;DHT22;41413;52.770;6.892;2023-07-22T09:43:11;18.30;99.90
52889;DHT22;41413;52.770;6.892;2023-07-22T09:45:40;18.20;99.90
52889;DHT22;41413;52.770;6.892;2023-07-22T09:48:09;18.10;99.90
52889;DHT22;41413;52.770;6.892;2023-07-22T09:50:36;18.00;99.90
52889;DHT22;41413;52.770;6.892;2023-07-22T09:53:04;18.00;99.90
52889;DHT22;41413;52.770;6.892;2023-07-22T09:55:32;17.90;99.90
52889;DHT22;41413;52.770;6.892;2023-07-22T09:58:03;17.70;99.90
52889;DHT22;41413;52.770;6.892;2023-07-22T10:00:33;17.70;99.90
52889;DHT22;41413;52.770;6.892;2023-07-22T10:03:02;17.70;99.90
52889;DHT22;41413;52.770;6.892;2023-07-22T10:05:38;17.60;99.90
52889;DHT22;41413;52.770;6.892;2023-07-22T10:08:06;17.50;99.90
52889;DHT22;41413;52.770;6.892;2023-07-22T10:10:35;17.40;99.90
52889;DHT22;41413;52.770;6.892;2023-07-22T10:13:02;17.30;99.90
52889;DHT22;41413;52.770;6.892;2023-07-22T10:15:33;17.20;99.90
52889;DHT22;41413;52.770;6.892;2023-07-22T10:18:04;17.10;99.90
52889;DHT22;41413;52.770;6.892;2023-07-22T10:20:34;17.40;99.90
52889;DHT22;41413;52.770;6.892;2023-07-22T10:23:04;17.50;99.90
52889;DHT22;41413;52.770;6.892;2023-07-22T10:25:30;17.50;99.90
52889;DHT22;41413;52.770;6.892;2023-07-22T10:27:57;17.40;99.90
52889;DHT22;41413;52.770;6.892;2023-07-22T10:30:24;17.40;99.90
52889;DHT22;41413;52.770;6.892;2023-07-22T10:32:52;17.40;99.90
52889;DHT22;41413;52.770;6.892;2023-07-22T10:38:14;17.30;99.90
52889;DHT22;41413;52.770;6.892;2023-07-22T10:40:44;17.30;99.90
52889;DHT22;41413;52.770;6.892;2023-07-22T10:43:12;17.10;99.90
52889;DHT22;41413;52.770;6.892;2023-07-22T10:45:43;17.10;99.90
52889;DHT22;41413;52.770;6.892;2023-07-22T10:48:12;16.90;99.90
52889;DHT22;41413;52.770;6.892;2023-07-22T11:06:53;16.70;99.90
52889;DHT22;41413;52.770;6.892;2023-07-22T11:11:57;16.60;99.90
52889;DHT22;41413;52.770;6.892;2023-07-22T11:14:25;16.70;99.90
52889;DHT22;41413;52.770;6.892;2023-07-22T11:16:53;16.70;99.90
52889;DHT22;41413;52.770;6.892;2023-07-22T11:19:23;16.70;99.90
52889;DHT22;41413;52.770;6.892;2023-07-22T11:21:53;16.70;99.90
52889;DHT22;41413;52.770;6.892;2023-07-22T11:24:21;16.60;99.90
52889;DHT22;41413;52.770;6.892;2023-07-22T11:26:49;16.60;99.90
52889;DHT22;41413;52.770;6.892;2023-07-22T11:29:17;16.80;99.90
52889;DHT22;41413;52.770;6.892;2023-07-22T11:31:45;16.80;99.90
52889;DHT22;41413;52.770;6.892;2023-07-22T11:34:21;16.80;99.90
52889;DHT22;41413;52.770;6.892;2023-07-22T11:36:50;16.90;99.90
52889;DHT22;41413;52.770;6.892;2023-07-22T11:39:20;16.90;99.90
52889;DHT22;41413;52.770;6.892;2023-07-22T11:41:48;16.90;99.90
52889;DHT22;41413;52.770;6.892;2023-07-22T11:44:27;16.90;99.90
52889;DHT22;41413;52.770;6.892;2023-07-22T11:47:05;16.90;99.90
52889;DHT22;41413;52.770;6.892;2023-07-22T11:49:40;16.80;99.90
52889;DHT22;41413;52.770;6.892;2023-07-22T11:52:15;16.60;99.90
52889;DHT22;41413;52.770;6.892;2023-07-22T11:54:43;16.60;99.90
52889;DHT22;41413;52.770;6.892;2023-07-22T11:57:22;16.60;99.90
52889;DHT22;41413;52.770;6.892;2023-07-22T11:59:54;16.50;99.90
52889;DHT22;41413;52.770;6.892;2023-07-22T12:02:22;16.40;99.90
52889;DHT22;41413;52.770;6.892;2023-07-22T12:07:43;16.40;99.90
52889;DHT22;41413;52.770;6.892;2023-07-22T12:10:10;16.50;99.90
52889;DHT22;41413;52.770;6.892;2023-07-22T12:12:45;16.50;99.90
52889;DHT22;41413;52.770;6.892;2023-07-22T12:15:18;16.40;99.90
52889;DHT22;41413;52.770;6.892;2023-07-22T12:17:52;16.40;99.90
52889;DHT22;41413;52.770;6.892;2023-07-22T12:20:27;16.40;99.90
52889;DHT22;41413;52.770;6.892;2023-07-22T12:22:55;16.50;99.90
52889;DHT22;41413;52.770;6.892;2023-07-22T12:25:22;16.50;99.90
52889;DHT22;41413;52.770;6.892;2023-07-22T12:27:49;16.50;99.90
52889;DHT22;41413;52.770;6.892;2023-07-22T12:30:19;16.60;99.90
52889;DHT22;41413;52.770;6.892;2023-07-22T12:32:47;16.60;99.90
52889;DHT22;41413;52.770;6.892;2023-07-22T12:35:14;16.60;99.90
52889;DHT22;41413;52.770;6.892;2023-07-22T12:37:41;16.60;99.90
52889;DHT22;41413;52.770;6.892;2023-07-22T12:40:08;16.60;99.90
52889;DHT22;41413;52.770;6.892;2023-07-22T12:42:36;16.60;99.90
52889;DHT22;41413;52.770;6.892;2023-07-22T12:45:04;16.40;99.90
52889;DHT22;41413;52.770;6.892;2023-07-22T12:47:31;16.30;99.90
52889;DHT22;41413;52.770;6.892;2023-07-22T12:49:58;16.30;99.90
52889;DHT22;41413;52.770;6.892;2023-07-22T12:52:24;16.20;99.90
52889;DHT22;41413;52.770;6.892;2023-07-22T12:54:51;16.30;99.90
52889;DHT22;41413;52.770;6.892;2023-07-22T12:57:18;16.30;99.90
52889;DHT22;41413;52.770;6.892;2023-07-22T12:59:45;16.30;99.90
52889;DHT22;41413;52.770;6.892;2023-07-22T13:02:14;16.30;99.90
52889;DHT22;41413;52.770;6.892;2023-07-22T13:04:41;16.20;99.90
52889;DHT22;41413;52.770;6.892;2023-07-22T13:07:07;16.30;99.90
52889;DHT22;41413;52.770;6.892;2023-07-22T13:09:34;16.30;99.90
52889;DHT22;41413;52.770;6.892;2023-07-22T13:12:01;16.20;99.90
52889;DHT22;41413;52.770;6.892;2023-07-22T13:14:28;16.20;99.90
52889;DHT22;41413;52.770;6.892;2023-07-22T13:16:54;16.10;99.90
52889;DHT22;41413;52.770;6.892;2023-07-22T13:19:21;16.10;99.90
52889;DHT22;41413;52.770;6.892;2023-07-22T13:21:48;16.00;99.90
52889;DHT22;41413;52.770;6.892;2023-07-22T13:24:14;15.90;99.90
52889;DHT22;41413;52.770;6.892;2023-07-22T13:26:42;15.80;99.90
52889;DHT22;41413;52.770;6.892;2023-07-22T13:29:09;15.80;99.90
52889;DHT22;41413;52.770;6.892;2023-07-22T13:31:36;15.60;99.90
52889;DHT22;41413;52.770;6.892;2023-07-22T13:34:03;15.60;99.90
52889;DHT22;41413;52.770;6.892;2023-07-22T13:36:30;15.50;99.90
52889;DHT22;41413;52.770;6.892;2023-07-22T13:38:57;15.50;99.90
52889;DHT22;41413;52.770;6.892;2023-07-22T13:41:23;15.50;99.90
52889;DHT22;41413;52.770;6.892;2023-07-22T13:43:50;15.40;99.90
52889;DHT22;41413;52.770;6.892;2023-07-22T13:46:17;15.50;99.90
52889;DHT22;41413;52.770;6.892;2023-07-22T13:48:44;15.40;99.90
52889;DHT22;41413;52.770;6.892;2023-07-22T13:51:11;15.50;99.90
52889;DHT22;41413;52.770;6.892;2023-07-22T13:53:38;15.50;99.90
52889;DHT22;41413;52.770;6.892;2023-07-22T13:56:04;15.50;99.90
52889;DHT22;41413;52.770;6.892;2023-07-22T13:58:31;15.60;99.90
52889;DHT22;41413;52.770;6.892;2023-07-22T14:00:58;15.70;99.90
52889;DHT22;41413;52.770;6.892;2023-07-22T14:03:27;15.70;99.90
52889;DHT22;41413;52.770;6.892;2023-07-22T14:05:54;15.70;99.90
52889;DHT22;41413;52.770;6.892;2023-07-22T14:08:21;15.70;99.90
52889;DHT22;41413;52.770;6.892;2023-07-22T14:10:48;15.80;99.90
52889;DHT22;41413;52.770;6.892;2023-07-22T14:13:15;15.90;99.90
52889;DHT22;41413;52.770;6.892;2023-07-22T14:15:42;15.90;99.90
52889;DHT22;41413;52.770;6.892;2023-07-22T14:18:08;15.90;99.90
52889;DHT22;41413;52.770;6.892;2023-07-22T14:20:35;15.90;99.90
52889;DHT22;41413;52.770;6.892;2023-07-22T14:23:02;15.90;99.90
52889;DHT22;41413;52.770;6.892;2023-07-22T14:25:31;15.90;99.90
52889;DHT22;41413;52.770;6.892;2023-07-22T14:27:57;15.90;99.90
52889;DHT22;41413;52.770;6.892;2023-07-22T14:30:24;15.80;99.90
52889;DHT22;41413;52.770;6.892;2023-07-22T14:32:52;15.80;99.90
52889;DHT22;41413;52.770;6.892;2023-07-22T14:35:19;15.80;99.90
52889;DHT22;41413;52.770;6.892;2023-07-22T14:37:45;15.80;99.90
52889;DHT22;41413;52.770;6.892;2023-07-22T14:40:13;15.80;99.90
52889;DHT22;41413;52.770;6.892;2023-07-22T14:42:40;15.70;99.90
52889;DHT22;41413;52.770;6.892;2023-07-22T14:45:07;15.80;99.90
52889;DHT22;41413;52.770;6.892;2023-07-22T14:47:34;15.80;99.90
52889;DHT22;41413;52.770;6.892;2023-07-22T14:50:02;15.70;99.90
52889;DHT22;41413;52.770;6.892;2023-07-22T14:52:29;15.80;99.90
52889;DHT22;41413;52.770;6.892;2023-07-22T14:54:55;15.80;99.90
52889;DHT22;41413;52.770;6.892;2023-07-22T14:57:22;15.80;99.90
52889;DHT22;41413;52.770;6.892;2023-07-22T14:59:49;15.80;99.90
52889;DHT22;41413;52.770;6.892;2023-07-22T15:02:16;15.90;99.90
52889;DHT22;41413;52.770;6.892;2023-07-22T15:04:42;15.90;99.90
52889;DHT22;41413;52.770;6.892;2023-07-22T15:07:09;16.00;99.90
52889;DHT22;41413;52.770;6.892;2023-07-22T15:09:36;15.90;99.90
52889;DHT22;41413;52.770;6.892;2023-07-22T15:12:03;15.80;99.90
52889;DHT22;41413;52.770;6.892;2023-07-22T15:14:30;15.80;99.90
52889;DHT22;41413;52.770;6.892;2023-07-22T15:16:56;15.80;99.90
52889;DHT22;41413;52.770;6.892;2023-07-22T15:19:23;15.90;99.90
52889;DHT22;41413;52.770;6.892;2023-07-22T15:21:50;15.80;99.90
52889;DHT22;41413;52.770;6.892;2023-07-22T15:24:17;15.80;99.90
52889;DHT22;41413;52.770;6.892;2023-07-22T15:26:44;15.80;99.90
52889;DHT22;41413;52.770;6.892;2023-07-22T15:29:11;15.80;99.90
52889;DHT22;41413;52.770;6.892;2023-07-22T15:31:38;15.70;99.90
52889;DHT22;41413;52.770;6.892;2023-07-22T15:34:05;15.90;99.90
52889;DHT22;41413;52.770;6.892;2023-07-22T15:36:32;15.80;99.90
52889;DHT22;41413;52.770;6.892;2023-07-22T15:38:59;16.00;99.90
52889;DHT22;41413;52.770;6.892;2023-07-22T15:41:26;15.90;99.90
52889;DHT22;41413;52.770;6.892;2023-07-22T15:43:53;16.00;99.90
52889;DHT22;41413;52.770;6.892;2023-07-22T15:46:20;16.00;99.90
52889;DHT22;41413;52.770;6.892;2023-07-22T15:48:47;15.90;99.90
52889;DHT22;41413;52.770;6.892;2023-07-22T15:51:14;15.90;99.90
52889;DHT22;41413;52.770;6.892;2023-07-22T15:53:40;15.90;99.90
52889;DHT22;41413;52.770;6.892;2023-07-22T15:56:07;15.90;99.90
52889;DHT22;41413;52.770;6.892;2023-07-22T15:58:34;15.90;99.90